createdAt,value
2022-07-25T14:32:47.057Z,100876.22
2022-07-25T14:35:16.786Z,100876.09
2022-07-25T14:37:46.809Z,100877.38
2022-07-25T14:40:17.466Z,100874.16
2022-07-25T14:42:47.773Z,100886.50
2022-07-25T14:45:20.146Z,100884.75
2022-07-25T14:47:50.477Z,100893.88
2022-07-25T14:50:20.678Z,100898.25
2022-07-25T14:52:51.027Z,100901.00
2022-07-25T14:55:22.997Z,100914.19
2022-07-25T14:57:53.201Z,100906.38
2022-07-25T15:00:29.187Z,100913.53
2022-07-25T15:03:00.043Z,100915.19
2022-07-25T15:05:30.272Z,100915.97
2022-07-25T15:08:00.375Z,100916.47
2022-07-25T15:10:30.512Z,100919.91
2022-07-25T15:13:28.071Z,100910.44
2022-07-25T15:15:52.525Z,100912.56
2022-07-25T15:18:22.852Z,100913.38
2022-07-25T15:20:54.387Z,100919.03
2022-07-25T15:23:30.217Z,100928.44
2022-07-25T15:26:03.478Z,100937.25
2022-07-25T15:28:38.671Z,100933.03
2022-07-25T15:31:09.398Z,100942.16
2022-07-25T15:33:39.988Z,100931.09
2022-07-25T15:36:10.666Z,100937.13
2022-07-25T15:38:40.795Z,100940.38
2022-07-25T15:41:13.103Z,100939.72
2022-07-25T15:43:43.507Z,100946.06
2022-07-25T15:46:15.243Z,100948.97
2022-07-25T15:48:46.923Z,100957.69
2022-07-25T15:51:19.112Z,100969.78
2022-07-25T15:53:49.352Z,100977.25
2022-07-25T15:56:19.754Z,100977.56
2022-07-25T15:58:52.859Z,100967.66
2022-07-25T16:01:23.114Z,100963.75
2022-07-25T16:03:53.519Z,100969.28
2022-07-25T16:06:24.130Z,100967.03
2022-07-25T16:08:54.861Z,100963.13
2022-07-25T16:11:27.854Z,100968.31
2022-07-25T16:13:57.934Z,100957.59
2022-07-25T16:16:28.793Z,100962.00
2022-07-25T16:19:00.031Z,100967.50
2022-07-25T16:21:30.267Z,100966.38
2022-07-25T16:24:00.175Z,100960.03
2022-07-25T16:26:30.371Z,100958.09
2022-07-25T16:29:00.644Z,100958.09
2022-07-25T16:31:30.914Z,100962.78
2022-07-25T16:34:01.086Z,100967.19
2022-07-25T16:36:32.144Z,100960.84
2022-07-25T16:39:02.009Z,100959.72
2022-07-25T16:41:32.390Z,100953.69
2022-07-25T16:44:02.594Z,100959.72
2022-07-25T16:46:32.794Z,100958.88
2022-07-25T16:49:02.987Z,100958.09
2022-07-25T16:51:37.029Z,100948.16
2022-07-25T16:54:07.783Z,100943.44
2022-07-25T16:56:42.006Z,100948.97
2022-07-25T16:59:13.238Z,100939.06
2022-07-25T17:01:43.108Z,100939.88
2022-07-25T17:04:13.090Z,100932.09
2022-07-25T17:06:44.188Z,100930.97
2022-07-25T17:09:14.001Z,100930.47
2022-07-25T17:11:44.512Z,100931.75
2022-07-25T17:14:14.548Z,100916.63
2022-07-25T17:16:46.082Z,100920.69
2022-07-25T17:19:16.223Z,100909.31
2022-07-25T17:21:46.217Z,100912.91
2022-07-25T17:24:16.241Z,100907.88
2022-07-25T17:26:46.261Z,100895.03
2022-07-25T17:29:17.266Z,100901.53
2022-07-25T17:31:47.476Z,100895.69
2022-07-25T17:34:17.648Z,100896.47
2022-07-25T17:36:47.753Z,100893.72
2022-07-25T17:39:18.049Z,100899.25
2022-07-25T17:41:48.341Z,100901.22
2022-07-25T17:44:19.149Z,100900.38
2022-07-25T17:46:52.075Z,100898.13
2022-07-25T17:49:23.811Z,100893.41
2022-07-25T17:51:54.000Z,100902.50
2022-07-25T17:54:24.249Z,100900.25
2022-07-25T17:56:54.411Z,100902.16
2022-07-25T17:59:24.557Z,100895.00
2022-07-25T18:01:54.544Z,100906.56
2022-07-25T18:04:25.460Z,100897.97
2022-07-25T18:06:55.974Z,100901.53
2022-07-25T18:09:26.460Z,100901.53
2022-07-25T18:11:57.000Z,100885.09
2022-07-25T18:14:27.090Z,100894.56
2022-07-25T18:16:57.369Z,100890.47
2022-07-25T18:19:28.646Z,100886.28
2022-07-25T18:21:58.861Z,100896.84
2022-07-25T18:24:29.511Z,100888.84
2022-07-25T18:27:01.648Z,100880.75
2022-07-25T18:29:31.919Z,100874.88
2022-07-25T18:32:02.148Z,100877.31
2022-07-25T18:34:33.562Z,100864.16
2022-07-25T18:37:03.812Z,100865.13
2022-07-25T18:39:34.078Z,100861.22
2022-07-25T18:42:04.393Z,100861.56
2022-07-25T18:44:35.425Z,100857.66
2022-07-25T18:47:05.894Z,100848.53
2022-07-25T18:49:36.683Z,100853.41
2022-07-25T18:52:07.687Z,100853.25
2022-07-25T18:54:37.749Z,100843.50
2022-07-25T18:57:08.372Z,100844.63
2022-07-25T18:59:38.808Z,100840.25
2022-07-25T19:02:09.025Z,100845.94
2022-07-25T19:04:39.357Z,100840.72
2022-07-25T19:07:11.057Z,100839.94
2022-07-25T19:09:41.218Z,100841.56
2022-07-25T19:12:12.424Z,100840.72
2022-07-25T19:14:42.603Z,100825.28
2022-07-25T19:17:12.681Z,100832.78
2022-07-25T19:19:42.728Z,100824.47
2022-07-25T19:22:12.871Z,100824.16
2022-07-25T19:24:43.316Z,100823.34
2022-07-25T19:27:13.616Z,100826.41
2022-07-25T19:29:45.716Z,100823.34
2022-07-25T19:32:17.138Z,100819.44
2022-07-25T19:34:48.516Z,100817.63
2022-07-25T19:37:18.749Z,100817.63
2022-07-25T19:39:49.967Z,100810.66
2022-07-25T19:42:20.233Z,100813.72
2022-07-25T19:44:50.238Z,100801.22
2022-07-25T19:47:20.210Z,100805.28
2022-07-25T19:49:50.500Z,100806.56
2022-07-25T19:52:21.105Z,100804.31
2022-07-25T19:54:51.288Z,100799.13
2022-07-25T19:57:21.435Z,100797.50
2022-07-25T19:59:51.488Z,100799.91
2022-07-25T20:02:21.531Z,100797.81
2022-07-25T20:04:51.567Z,100798.97
2022-07-25T20:07:22.983Z,100799.59
2022-07-25T20:09:53.573Z,100802.03
2022-07-25T20:12:23.653Z,100810.66
2022-07-25T20:14:53.609Z,100799.91
2022-07-25T20:17:23.586Z,100803.50
2022-07-25T20:19:54.198Z,100799.91
2022-07-25T20:22:24.705Z,100807.06
2022-07-25T20:24:54.816Z,100806.13
2022-07-25T20:27:25.183Z,100797.50
2022-07-25T20:29:55.384Z,100803.34
2022-07-25T20:32:26.049Z,100810.50
2022-07-25T20:34:57.073Z,100799.28
2022-07-25T20:37:27.446Z,100804.78
2022-07-25T20:39:57.779Z,100806.75
2022-07-25T20:42:29.037Z,100803.84
2022-07-25T20:44:59.202Z,100799.44
2022-07-25T20:47:29.178Z,100793.94
2022-07-25T20:50:00.916Z,100790.34
2022-07-25T20:52:32.334Z,100797.63
2022-07-25T20:55:06.888Z,100789.69
2022-07-25T20:57:37.781Z,100788.56
2022-07-25T21:00:08.539Z,100787.91
2022-07-25T21:02:38.875Z,100783.03
2022-07-25T21:05:09.742Z,100779.78
2022-07-25T21:07:39.982Z,100768.38
2022-07-25T21:10:11.075Z,100772.59
2022-07-25T21:12:41.474Z,100767.88
2022-07-25T21:15:12.136Z,100773.41
2022-07-25T21:17:43.796Z,100770.34
2022-07-25T21:20:15.848Z,100764.63
2022-07-25T21:22:46.756Z,100775.69
2022-07-25T21:25:16.982Z,100768.53
2022-07-25T21:27:47.317Z,100764.44
2022-07-25T21:30:18.495Z,100760.88
2022-07-25T21:32:48.923Z,100755.03
2022-07-25T21:35:20.320Z,100760.56
2022-07-25T21:37:50.545Z,100755.50
2022-07-25T21:40:20.953Z,100757.97
2022-07-25T21:42:51.169Z,100755.50
2022-07-25T21:45:21.180Z,100768.84
2022-07-25T21:47:51.124Z,100759.75
2022-07-25T21:50:42.215Z,100763.16
2022-07-25T21:53:16.274Z,100757.97
2022-07-25T21:55:46.426Z,100757.63
2022-07-25T21:58:16.485Z,100754.06
2022-07-25T22:00:47.034Z,100756.00
2022-07-25T22:03:17.241Z,100763.00
2022-07-25T22:05:47.354Z,100757.47
2022-07-25T22:08:17.298Z,100757.47
2022-07-25T22:10:47.360Z,100757.81
2022-07-25T22:13:17.357Z,100760.06
2022-07-25T22:15:47.278Z,100763.63
2022-07-25T22:18:17.384Z,100766.72
2022-07-25T22:20:47.364Z,100769.50
2022-07-25T22:23:17.294Z,100774.03
2022-07-25T22:25:47.248Z,100774.03
2022-07-25T22:28:17.459Z,100783.31
2022-07-25T22:30:47.514Z,100790.13
2022-07-25T22:33:17.897Z,100782.66
2022-07-25T22:35:48.040Z,100786.88
2022-07-25T22:38:18.172Z,100793.84
2022-07-25T22:40:48.972Z,100798.25
2022-07-25T22:43:19.064Z,100798.41
2022-07-25T22:45:49.489Z,100802.28
2022-07-25T22:48:19.864Z,100806.19
2022-07-25T22:50:50.283Z,100807.81
2022-07-25T22:53:20.442Z,100810.91
2022-07-25T22:55:50.645Z,100806.66
